sensor_id;sensor_type;location;lat;lon;timestamp;temperature;humidity
28297;DHT22;62078;49.366;8.172;2023-08-12T19:01:43;23.80;80.90
28297;DHT22;62078;49.366;8.172;2023-08-12T19:04:09;23.80;81.40
28297;DHT22;62078;49.366;8.172;2023-08-12T19:06:36;23.70;81.50
28297;DHT22;62078;49.366;8.172;2023-08-12T19:09:01;23.70;81.70
28297;DHT22;62078;49.366;8.172;2023-08-12T19:11:28;23.70;82.80
28297;DHT22;62078;49.366;8.172;2023-08-12T19:13:54;23.70;83.60
28297;DHT22;62078;49.366;8.172;2023-08-12T19:16:20;23.70;84.60
28297;DHT22;62078;49.366;8.172;2023-08-12T19:18:46;23.60;85.20
28297;DHT22;62078;49.366;8.172;2023-08-12T19:21:11;23.60;85.40
28297;DHT22;62078;49.366;8.172;2023-08-12T19:23:38;23.60;86.20
28297;DHT22;62078;49.366;8.172;2023-08-12T19:26:03;23.50;86.20
28297;DHT22;62078;49.366;8.172;2023-08-12T19:28:29;23.50;85.70
28297;DHT22;62078;49.366;8.172;2023-08-12T19:30:55;23.50;85.80
28297;DHT22;62078;49.366;8.172;2023-08-12T19:33:21;23.50;85.70
28297;DHT22;62078;49.366;8.172;2023-08-12T19:35:47;23.50;85.40
28297;DHT22;62078;49.366;8.172;2023-08-12T19:38:14;23.50;84.80
28297;DHT22;62078;49.366;8.172;2023-08-12T19:40:40;23.50;84.80
28297;DHT22;62078;49.366;8.172;2023-08-12T19:43:06;23.50;85.10
28297;DHT22;62078;49.366;8.172;2023-08-12T19:45:31;23.60;84.30
28297;DHT22;62078;49.366;8.172;2023-08-12T19:47:57;23.60;83.80
28297;DHT22;62078;49.366;8.172;2023-08-12T19:50:23;23.60;83.30
28297;DHT22;62078;49.366;8.172;2023-08-12T19:52:49;23.60;83.00
28297;DHT22;62078;49.366;8.172;2023-08-12T19:55:15;23.60;82.70
28297;DHT22;62078;49.366;8.172;2023-08-12T19:57:41;23.60;82.50
28297;DHT22;62078;49.366;8.172;2023-08-12T20:00:07;23.60;82.00
28297;DHT22;62078;49.366;8.172;2023-08-12T20:02:36;23.60;81.70
28297;DHT22;62078;49.366;8.172;2023-08-12T20:05:10;23.60;81.80
28297;DHT22;62078;49.366;8.172;2023-08-12T20:07:36;23.60;81.40
28297;DHT22;62078;49.366;8.172;2023-08-12T20:10:02;23.60;81.10
28297;DHT22;62078;49.366;8.172;2023-08-12T20:12:27;23.60;80.80
28297;DHT22;62078;49.366;8.172;2023-08-12T20:14:53;23.60;80.60
28297;DHT22;62078;49.366;8.172;2023-08-12T20:17:19;23.60;80.30
28297;DHT22;62078;49.366;8.172;2023-08-12T20:19:47;23.60;80.10
28297;DHT22;62078;49.366;8.172;2023-08-12T20:22:13;23.60;80.00
28297;DHT22;62078;49.366;8.172;2023-08-12T20:24:39;23.60;79.70
28297;DHT22;62078;49.366;8.172;2023-08-12T20:27:04;23.60;79.60
28297;DHT22;62078;49.366;8.172;2023-08-12T20:29:30;23.60;79.50
28297;DHT22;62078;49.366;8.172;2023-08-12T20:31:55;23.60;79.40
28297;DHT22;62078;49.366;8.172;2023-08-12T20:34:21;23.60;79.30
28297;DHT22;62078;49.366;8.172;2023-08-12T20:36:47;23.60;79.10
28297;DHT22;62078;49.366;8.172;2023-08-12T20:39:13;23.60;79.00
28297;DHT22;62078;49.366;8.172;2023-08-12T20:41:39;23.60;78.90
28297;DHT22;62078;49.366;8.172;2023-08-12T20:44:04;23.60;78.80
28297;DHT22;62078;49.366;8.172;2023-08-12T20:46:30;23.70;78.80
28297;DHT22;62078;49.366;8.172;2023-08-12T20:48:56;23.60;78.60
28297;DHT22;62078;49.366;8.172;2023-08-12T20:51:21;23.60;78.50
28297;DHT22;62078;49.366;8.172;2023-08-12T20:53:47;23.70;79.20
28297;DHT22;62078;49.366;8.172;2023-08-12T20:56:13;23.60;78.20
28297;DHT22;62078;49.366;8.172;2023-08-12T20:58:38;23.60;78.30
28297;DHT22;62078;49.366;8.172;2023-08-12T21:01:04;23.60;78.20
28297;DHT22;62078;49.366;8.172;2023-08-12T21:03:30;23.60;78.20
28297;DHT22;62078;49.366;8.172;2023-08-12T21:05:56;23.60;78.00
28297;DHT22;62078;49.366;8.172;2023-08-12T21:08:22;23.60;78.10
28297;DHT22;62078;49.366;8.172;2023-08-12T21:10:54;23.60;78.30
28297;DHT22;62078;49.366;8.172;2023-08-12T21:13:20;23.60;78.10
28297;DHT22;62078;49.366;8.172;2023-08-12T21:15:46;23.60;78.10
28297;DHT22;62078;49.366;8.172;2023-08-12T21:18:12;23.60;77.80
28297;DHT22;62078;49.366;8.172;2023-08-12T21:20:37;23.60;77.80
28297;DHT22;62078;49.366;8.172;2023-08-12T21:23:04;23.60;77.90
28297;DHT22;62078;49.366;8.172;2023-08-12T21:25:30;23.60;78.60
28297;DHT22;62078;49.366;8.172;2023-08-12T21:27:56;23.60;77.90
28297;DHT22;62078;49.366;8.172;2023-08-12T21:30:21;23.60;77.70
28297;DHT22;62078;49.366;8.172;2023-08-12T21:32:47;23.60;77.60
28297;DHT22;62078;49.366;8.172;2023-08-12T21:35:13;23.60;77.40
28297;DHT22;62078;49.366;8.172;2023-08-12T21:37:39;23.60;77.50
28297;DHT22;62078;49.366;8.172;2023-08-12T21:40:05;23.60;77.50
28297;DHT22;62078;49.366;8.172;2023-08-12T21:42:31;23.60;77.50
28297;DHT22;62078;49.366;8.172;2023-08-12T21:44:56;23.60;77.40
28297;DHT22;62078;49.366;8.172;2023-08-12T21:47:22;23.60;77.40
28297;DHT22;62078;49.366;8.172;2023-08-12T21:49:48;23.60;77.30
28297;DHT22;62078;49.366;8.172;2023-08-12T21:52:13;23.60;77.40
28297;DHT22;62078;49.366;8.172;2023-08-12T21:54:42;23.60;77.10
28297;DHT22;62078;49.366;8.172;2023-08-12T21:57:08;23.60;77.20
28297;DHT22;62078;49.366;8.172;2023-08-12T21:59:34;23.60;77.20
28297;DHT22;62078;49.366;8.172;2023-08-12T22:02:03;23.60;77.00
28297;DHT22;62078;49.366;8.172;2023-08-12T22:04:28;23.60;76.90
28297;DHT22;62078;49.366;8.172;2023-08-12T22:06:54;23.60;76.90
28297;DHT22;62078;49.366;8.172;2023-08-12T22:09:20;23.60;76.90
28297;DHT22;62078;49.366;8.172;2023-08-12T22:11:45;23.60;76.80
28297;DHT22;62078;49.366;8.172;2023-08-12T22:14:11;23.60;76.70
28297;DHT22;62078;49.366;8.172;2023-08-12T22:16:37;23.60;76.70
28297;DHT22;62078;49.366;8.172;2023-08-12T22:19:03;23.60;76.50
28297;DHT22;62078;49.366;8.172;2023-08-12T22:21:28;23.60;76.60
28297;DHT22;62078;49.366;8.172;2023-08-12T22:23:54;23.60;76.50
28297;DHT22;62078;49.366;8.172;2023-08-12T22:26:19;23.60;76.50
28297;DHT22;62078;49.366;8.172;2023-08-12T22:28:45;23.60;76.40
28297;DHT22;62078;49.366;8.172;2023-08-12T22:31:11;23.60;76.30
28297;DHT22;62078;49.366;8.172;2023-08-12T22:33:37;23.60;76.20
28297;DHT22;62078;49.366;8.172;2023-08-12T22:36:02;23.60;76.20
28297;DHT22;62078;49.366;8.172;2023-08-12T22:38:28;23.60;76.20
28297;DHT22;62078;49.366;8.172;2023-08-12T22:40:55;23.60;76.20
28297;DHT22;62078;49.366;8.172;2023-08-12T22:43:21;23.60;76.10
28297;DHT22;62078;49.366;8.172;2023-08-12T22:45:49;23.60;76.10
28297;DHT22;62078;49.366;8.172;2023-08-12T22:48:17;23.60;76.10
28297;DHT22;62078;49.366;8.172;2023-08-12T22:50:44;23.60;76.00
28297;DHT22;62078;49.366;8.172;2023-08-12T22:53:10;23.60;75.80
28297;DHT22;62078;49.366;8.172;2023-08-12T22:55:41;23.60;76.50
28297;DHT22;62078;49.366;8.172;2023-08-12T22:58:07;23.60;75.80
28297;DHT22;62078;49.366;8.172;2023-08-12T23:00:33;23.60;75.80
28297;DHT22;62078;49.366;8.172;2023-08-12T23:02:58;23.60;75.80
28297;DHT22;62078;49.366;8.172;2023-08-12T23:05:24;23.60;75.70
28297;DHT22;62078;49.366;8.172;2023-08-12T23:07:50;23.50;75.70
28297;DHT22;62078;49.366;8.172;2023-08-12T23:10:15;23.60;75.80
28297;DHT22;62078;49.366;8.172;2023-08-12T23:12:41;23.60;75.80
28297;DHT22;62078;49.366;8.172;2023-08-12T23:15:07;23.60;75.80
28297;DHT22;62078;49.366;8.172;2023-08-12T23:17:34;23.60;75.90
28297;DHT22;62078;49.366;8.172;2023-08-12T23:19:59;23.60;75.90
28297;DHT22;62078;49.366;8.172;2023-08-12T23:22:25;23.60;75.80
28297;DHT22;62078;49.366;8.172;2023-08-12T23:24:51;23.60;75.70
28297;DHT22;62078;49.366;8.172;2023-08-12T23:27:16;23.60;75.60
28297;DHT22;62078;49.366;8.172;2023-08-12T23:29:42;23.60;75.50
28297;DHT22;62078;49.366;8.172;2023-08-12T23:32:08;23.60;75.40
28297;DHT22;62078;49.366;8.172;2023-08-12T23:34:34;23.50;75.30
28297;DHT22;62078;49.366;8.172;2023-08-12T23:36:59;23.60;75.40
28297;DHT22;62078;49.366;8.172;2023-08-12T23:39:25;23.60;75.40
28297;DHT22;62078;49.366;8.172;2023-08-12T23:41:51;23.60;76.00
28297;DHT22;62078;49.366;8.172;2023-08-12T23:44:17;23.60;75.30
28297;DHT22;62078;49.366;8.172;2023-08-12T23:46:43;23.60;75.20
28297;DHT22;62078;49.366;8.172;2023-08-12T23:49:10;23.60;75.30
28297;DHT22;62078;49.366;8.172;2023-08-12T23:51:38;23.60;75.30
28297;DHT22;62078;49.366;8.172;2023-08-12T23:54:04;23.60;75.10
28297;DHT22;62078;49.366;8.172;2023-08-12T23:56:30;23.60;75.20
28297;DHT22;62078;49.366;8.172;2023-08-12T23:58:55;23.60;75.10
